createdAt,value
2023-10-18T00:00:20.398Z,3.90
2023-10-18T00:02:48.589Z,3.90
2023-10-18T00:05:18.593Z,3.80
2023-10-18T00:07:48.110Z,3.80
2023-10-18T00:10:18.786Z,3.80
2023-10-18T00:12:47.414Z,3.80
2023-10-18T00:15:15.707Z,3.70
2023-10-18T00:17:45.280Z,3.70
2023-10-18T00:20:16.737Z,3.70
2023-10-18T00:22:45.645Z,3.70
2023-10-18T00:25:13.975Z,3.80
2023-10-18T00:27:43.236Z,3.70
2023-10-18T00:30:12.642Z,3.70
2023-10-18T00:32:41.429Z,3.70
2023-10-18T00:35:19.676Z,3.70
2023-10-18T00:37:48.990Z,3.70
2023-10-18T00:40:34.600Z,3.70
2023-10-18T00:43:08.830Z,3.70
2023-10-18T00:45:45.136Z,3.70
2023-10-18T00:48:14.589Z,3.60
2023-10-18T00:50:47.806Z,3.60
2023-10-18T00:53:20.964Z,3.60
2023-10-18T00:55:54.326Z,3.50
2023-10-18T00:58:23.604Z,3.50
2023-10-18T01:00:52.424Z,3.50
2023-10-18T01:03:30.714Z,3.50
2023-10-18T01:06:01.025Z,3.50
2023-10-18T01:08:31.381Z,3.50
2023-10-18T01:11:05.194Z,3.50
2023-10-18T01:13:35.867Z,3.40
2023-10-18T01:16:07.222Z,3.40
2023-10-18T01:18:36.145Z,3.40
2023-10-18T01:21:14.900Z,3.40
2023-10-18T01:23:45.700Z,3.40
2023-10-18T01:26:15.918Z,3.40
2023-10-18T01:28:45.840Z,3.40
2023-10-18T01:31:14.496Z,3.40
2023-10-18T01:33:44.810Z,3.40
2023-10-18T01:36:15.821Z,3.40
2023-10-18T01:38:45.413Z,3.30
2023-10-18T01:41:17.891Z,3.30
2023-10-18T01:43:46.209Z,3.30
2023-10-18T01:46:15.637Z,3.30
2023-10-18T01:48:51.592Z,3.30
2023-10-18T01:51:20.382Z,3.30
2023-10-18T01:53:51.485Z,3.30
2023-10-18T01:56:22.662Z,3.20
2023-10-18T01:58:51.268Z,3.20
2023-10-18T02:01:19.729Z,3.20
2023-10-18T02:03:51.236Z,3.20
2023-10-18T02:06:22.312Z,3.10
2023-10-18T02:08:51.394Z,3.10
2023-10-18T02:11:20.753Z,3.10
2023-10-18T02:13:48.672Z,3.00
2023-10-18T02:16:17.781Z,3.00
2023-10-18T02:18:49.546Z,3.10
2023-10-18T02:21:17.798Z,3.10
2023-10-18T02:23:49.225Z,3.10
2023-10-18T02:26:31.598Z,3.10
2023-10-18T02:29:06.820Z,3.10
2023-10-18T02:31:35.112Z,3.20
2023-10-18T02:34:18.593Z,3.20
2023-10-18T02:36:50.920Z,3.20
2023-10-18T02:39:24.092Z,3.20
2023-10-18T02:41:55.195Z,3.10
2023-10-18T02:44:24.809Z,3.10
2023-10-18T02:46:53.792Z,3.10
2023-10-18T02:49:24.874Z,3.10
2023-10-18T02:51:52.899Z,3.10
2023-10-18T02:54:23.343Z,3.10
2023-10-18T02:56:54.594Z,3.10
2023-10-18T02:59:28.415Z,3.10
2023-10-18T03:01:58.089Z,3.10
2023-10-18T03:04:28.781Z,3.10
2023-10-18T03:06:59.845Z,3.10
2023-10-18T03:09:39.389Z,3.10
2023-10-18T03:12:14.535Z,3.10
2023-10-18T03:14:55.444Z,3.10
2023-10-18T03:17:25.807Z,3.10
2023-10-18T03:19:56.977Z,3.00
2023-10-18T03:22:27.695Z,3.00
2023-10-18T03:24:56.531Z,3.10
2023-10-18T03:27:26.013Z,3.00
2023-10-18T03:29:59.285Z,3.00
2023-10-18T03:32:28.392Z,3.00
2023-10-18T03:34:57.532Z,3.00
2023-10-18T03:37:26.641Z,3.00
2023-10-18T03:39:55.209Z,3.00
2023-10-18T03:42:33.085Z,3.00
2023-10-18T03:45:10.710Z,3.00
2023-10-18T03:47:38.765Z,3.00
2023-10-18T03:50:14.492Z,3.00
2023-10-18T03:52:43.224Z,2.90
2023-10-18T03:55:18.109Z,2.90
2023-10-18T03:57:46.941Z,2.90
2023-10-18T04:00:39.170Z,2.80
2023-10-18T04:03:13.308Z,2.80
2023-10-18T04:05:44.341Z,2.80
2023-10-18T04:08:14.998Z,2.80
2023-10-18T04:10:43.551Z,2.80
2023-10-18T04:13:13.919Z,2.80
2023-10-18T04:15:46.803Z,2.80
2023-10-18T04:18:27.067Z,2.80
2023-10-18T04:20:55.224Z,2.80
2023-10-18T04:23:26.927Z,2.80
2023-10-18T04:25:59.916Z,2.80
2023-10-18T04:28:29.326Z,2.80
2023-10-18T04:31:01.770Z,2.80
2023-10-18T04:33:35.988Z,2.80
2023-10-18T04:36:10.382Z,2.80
2023-10-18T04:38:43.630Z,2.80
2023-10-18T04:41:23.616Z,2.80
2023-10-18T04:43:53.283Z,2.80
2023-10-18T04:46:27.497Z,2.80
2023-10-18T04:49:13.797Z,2.70
2023-10-18T04:51:46.496Z,2.70
2023-10-18T04:54:18.319Z,2.70
2023-10-18T04:56:48.564Z,2.60
2023-10-18T04:59:35.954Z,2.60
2023-10-18T05:02:17.228Z,2.60
2023-10-18T05:04:47.578Z,2.60
2023-10-18T05:07:18.110Z,2.50
2023-10-18T05:09:47.236Z,2.50
2023-10-18T05:12:28.661Z,2.50
2023-10-18T05:15:10.115Z,2.50
2023-10-18T05:17:43.811Z,2.50
2023-10-18T05:20:23.116Z,2.50
2023-10-18T05:22:53.812Z,2.50
2023-10-18T05:25:31.162Z,2.50
2023-10-18T05:28:10.432Z,2.50
2023-10-18T05:30:57.418Z,2.50
2023-10-18T05:33:43.521Z,2.50
2023-10-18T05:36:30.921Z,2.50
2023-10-18T05:39:07.633Z,2.40
2023-10-18T05:41:46.375Z,2.40
2023-10-18T05:44:15.077Z,2.40
2023-10-18T05:46:43.273Z,2.40
2023-10-18T05:49:17.142Z,2.40
2023-10-18T05:52:02.077Z,2.30
2023-10-18T05:54:30.637Z,2.30
2023-10-18T05:56:58.994Z,2.30
2023-10-18T05:59:32.682Z,2.30
2023-10-18T06:02:01.812Z,2.40
2023-10-18T06:04:39.161Z,2.40
2023-10-18T06:07:10.804Z,2.40
2023-10-18T06:09:47.753Z,2.40
2023-10-18T06:12:16.616Z,2.40
2023-10-18T06:14:45.963Z,2.50
2023-10-18T06:17:20.587Z,2.50
2023-10-18T06:19:51.544Z,2.60
2023-10-18T06:22:30.523Z,2.60
2023-10-18T06:25:01.755Z,2.60
2023-10-18T06:27:39.845Z,2.60
2023-10-18T06:30:15.536Z,2.70
2023-10-18T06:32:44.865Z,2.70
2023-10-18T06:35:17.193Z,2.80
2023-10-18T06:37:46.083Z,2.80
2023-10-18T06:40:23.806Z,2.90
2023-10-18T06:42:52.301Z,2.90
2023-10-18T06:45:20.297Z,2.90
2023-10-18T06:47:49.769Z,2.90
2023-10-18T06:50:27.945Z,3.00
2023-10-18T06:52:56.263Z,3.00
2023-10-18T06:55:37.311Z,3.10
2023-10-18T06:58:13.136Z,3.20
2023-10-18T07:00:44.689Z,3.20
2023-10-18T07:03:17.813Z,3.30
2023-10-18T07:05:50.885Z,3.40
2023-10-18T07:08:24.529Z,3.40
2023-10-18T07:11:11.992Z,3.50
2023-10-18T07:13:47.426Z,3.60
2023-10-18T07:16:17.312Z,3.70
2023-10-18T07:18:46.195Z,3.80
2023-10-18T07:21:20.083Z,3.80
2023-10-18T07:23:54.302Z,3.90
2023-10-18T07:26:25.697Z,4.10
2023-10-18T07:28:55.429Z,4.20
2023-10-18T07:31:26.577Z,4.40
2023-10-18T07:33:55.757Z,4.50
2023-10-18T07:36:26.953Z,4.70
2023-10-18T07:38:57.279Z,4.90
2023-10-18T07:41:27.683Z,5.10
2023-10-18T07:43:56.887Z,5.30
2023-10-18T07:46:26.574Z,5.50
2023-10-18T07:48:55.432Z,5.70
2023-10-18T07:51:28.390Z,6.00
2023-10-18T07:53:57.167Z,6.10
2023-10-18T07:56:28.904Z,6.40
2023-10-18T07:59:08.354Z,6.60
2023-10-18T08:01:53.886Z,6.90
2023-10-18T08:04:22.922Z,7.10
2023-10-18T08:06:52.297Z,7.30
2023-10-18T08:09:21.498Z,7.50
2023-10-18T08:11:50.978Z,7.70
2023-10-18T08:14:25.441Z,7.80
2023-10-18T08:16:56.874Z,7.90
2023-10-18T08:19:25.160Z,8.10
2023-10-18T08:22:12.908Z,8.30
2023-10-18T08:24:42.536Z,8.60
2023-10-18T08:27:11.476Z,8.80
2023-10-18T08:29:42.575Z,9.00
2023-10-18T08:32:16.017Z,9.20
2023-10-18T08:34:45.146Z,9.30
2023-10-18T08:37:15.460Z,9.50
2023-10-18T08:39:53.919Z,9.50
2023-10-18T08:42:31.126Z,9.60
2023-10-18T08:45:04.844Z,9.70
2023-10-18T08:47:40.613Z,9.70
2023-10-18T08:50:13.298Z,9.90
2023-10-18T08:52:48.829Z,10.00
2023-10-18T08:55:33.489Z,10.20
2023-10-18T08:58:09.356Z,10.40
2023-10-18T09:00:51.948Z,10.70
2023-10-18T09:03:22.061Z,10.80
2023-10-18T09:05:53.290Z,10.90
2023-10-18T09:08:27.521Z,11.00
2023-10-18T09:10:56.686Z,11.20
2023-10-18T09:13:34.467Z,11.20
2023-10-18T09:16:12.388Z,11.20
2023-10-18T09:18:40.662Z,11.30
2023-10-18T09:21:18.834Z,11.30
2023-10-18T09:23:50.897Z,11.40
2023-10-18T09:26:27.240Z,11.50
2023-10-18T09:28:57.544Z,11.60
2023-10-18T09:31:25.673Z,11.70
2023-10-18T09:33:57.883Z,11.60
2023-10-18T09:36:25.997Z,11.50
2023-10-18T09:38:56.788Z,11.40
2023-10-18T09:41:28.016Z,11.40
2023-10-18T09:44:02.059Z,11.40
2023-10-18T09:46:31.071Z,11.60
2023-10-18T09:49:00.071Z,11.80
2023-10-18T09:51:28.676Z,11.80
2023-10-18T09:53:58.250Z,11.80
2023-10-18T09:56:34.289Z,11.70
2023-10-18T09:59:07.024Z,11.70
2023-10-18T10:02:01.816Z,11.70
2023-10-18T10:04:34.362Z,11.80
2023-10-18T10:07:22.700Z,11.90
2023-10-18T10:10:00.370Z,12.00
2023-10-18T10:12:29.361Z,12.10
2023-10-18T10:14:59.721Z,12.20
2023-10-18T10:17:30.881Z,12.20
2023-10-18T10:20:11.277Z,12.20
2023-10-18T10:22:42.453Z,12.10
2023-10-18T10:25:38.337Z,12.30
2023-10-18T10:28:16.087Z,12.20
2023-10-18T10:30:44.809Z,12.00
2023-10-18T10:33:14.214Z,12.00
2023-10-18T10:35:47.684Z,11.90
2023-10-18T10:38:20.160Z,12.00
2023-10-18T10:40:51.344Z,12.00
2023-10-18T10:43:23.968Z,12.00
2023-10-18T10:45:56.839Z,12.00
2023-10-18T10:48:37.991Z,12.00
2023-10-18T10:51:13.029Z,12.10
2023-10-18T10:53:50.371Z,12.10
2023-10-18T10:56:27.896Z,12.00
2023-10-18T10:58:57.451Z,12.10
2023-10-18T11:02:07.343Z,12.10
2023-10-18T11:04:58.992Z,12.10
2023-10-18T11:07:29.251Z,12.00
2023-10-18T11:10:07.094Z,12.10
2023-10-18T11:12:37.005Z,12.10
2023-10-18T11:15:10.801Z,12.20
2023-10-18T11:17:43.693Z,12.20
2023-10-18T11:20:20.373Z,12.00
2023-10-18T11:22:51.820Z,12.10
2023-10-18T11:25:31.840Z,12.00
2023-10-18T11:28:21.434Z,11.90
2023-10-18T11:30:54.680Z,11.90
2023-10-18T11:33:37.399Z,12.00
2023-10-18T11:36:09.266Z,12.10
2023-10-18T11:38:37.316Z,12.20
2023-10-18T11:41:12.745Z,12.20
2023-10-18T11:43:44.833Z,12.20
2023-10-18T11:46:15.154Z,12.40
2023-10-18T11:48:44.231Z,12.40
2023-10-18T11:51:14.566Z,12.40
2023-10-18T11:53:42.475Z,12.30
2023-10-18T11:56:12.829Z,12.20
2023-10-18T11:59:01.137Z,12.20
2023-10-18T12:01:34.820Z,12.20
2023-10-18T12:04:07.386Z,12.30
2023-10-18T12:06:35.554Z,12.30
2023-10-18T12:09:26.148Z,12.30
2023-10-18T12:11:54.491Z,12.30
2023-10-18T12:14:24.732Z,12.30
2023-10-18T12:16:55.758Z,12.30
2023-10-18T12:19:23.986Z,12.30
2023-10-18T12:21:55.394Z,12.30
2023-10-18T12:24:25.203Z,12.40
2023-10-18T12:26:55.763Z,12.30
2023-10-18T12:29:31.679Z,12.30
2023-10-18T12:32:20.545Z,12.30
2023-10-18T12:34:51.885Z,12.40
2023-10-18T12:37:19.762Z,12.40
2023-10-18T12:39:48.464Z,12.40
2023-10-18T12:42:22.048Z,12.50
2023-10-18T12:44:56.212Z,12.40
2023-10-18T12:47:24.410Z,12.50
2023-10-18T12:49:52.635Z,12.60
2023-10-18T12:52:38.148Z,12.60
2023-10-18T12:55:27.601Z,12.50
2023-10-18T12:57:55.887Z,12.50
2023-10-18T13:00:26.483Z,12.50
2023-10-18T13:03:08.965Z,12.50
2023-10-18T13:05:46.958Z,12.50
2023-10-18T13:08:18.298Z,12.40
2023-10-18T13:10:58.724Z,12.30
2023-10-18T13:13:25.887Z,12.20
2023-10-18T13:15:58.121Z,12.20
2023-10-18T13:18:26.776Z,12.20
2023-10-18T13:20:55.570Z,12.20
2023-10-18T13:23:28.418Z,12.30
2023-10-18T13:25:56.737Z,12.40
2023-10-18T13:28:34.656Z,12.40
2023-10-18T13:31:09.095Z,12.30
2023-10-18T13:33:39.828Z,12.30
2023-10-18T13:36:14.561Z,12.30
2023-10-18T13:38:42.730Z,12.20
2023-10-18T13:41:13.670Z,12.20
2023-10-18T13:43:41.641Z,12.20
2023-10-18T13:46:19.507Z,12.20
2023-10-18T13:48:51.048Z,12.10
2023-10-18T13:51:20.301Z,12.10
2023-10-18T13:53:49.040Z,12.10
2023-10-18T13:56:17.091Z,12.10
2023-10-18T13:58:45.941Z,12.10
2023-10-18T14:01:22.141Z,12.10
2023-10-18T14:03:52.472Z,12.10
2023-10-18T14:06:20.666Z,12.10
2023-10-18T14:08:48.626Z,12.00
2023-10-18T14:11:18.900Z,12.00
2023-10-18T14:13:48.786Z,11.90
2023-10-18T14:16:18.767Z,11.90
2023-10-18T14:18:48.364Z,11.90
2023-10-18T14:21:16.732Z,11.90
2023-10-18T14:23:46.894Z,11.90
2023-10-18T14:26:15.640Z,11.90
2023-10-18T14:28:43.852Z,11.90
2023-10-18T14:31:14.563Z,11.90
2023-10-18T14:33:57.318Z,11.90
2023-10-18T14:36:33.346Z,11.90
2023-10-18T14:39:01.688Z,11.90
2023-10-18T14:41:33.085Z,11.80
2023-10-18T14:44:03.184Z,11.80
2023-10-18T14:46:32.752Z,11.80
2023-10-18T14:49:02.364Z,11.80
2023-10-18T14:51:31.212Z,11.70
2023-10-18T14:53:59.344Z,11.70
2023-10-18T14:56:27.369Z,11.70
2023-10-18T14:58:56.506Z,11.70
2023-10-18T15:01:24.814Z,11.70
2023-10-18T15:03:52.978Z,11.70
2023-10-18T15:06:22.714Z,11.70
2023-10-18T15:08:51.159Z,11.70
2023-10-18T15:11:21.068Z,11.70
2023-10-18T15:13:50.544Z,11.70
2023-10-18T15:16:19.591Z,11.60
2023-10-18T15:18:49.557Z,11.60
2023-10-18T15:21:18.733Z,11.50
2023-10-18T15:23:47.962Z,11.40
2023-10-18T15:26:18.241Z,11.40
2023-10-18T15:28:51.161Z,11.30
2023-10-18T15:31:19.836Z,11.30
2023-10-18T15:33:47.768Z,11.20
2023-10-18T15:36:18.847Z,11.10
2023-10-18T15:38:49.764Z,11.00
2023-10-18T15:41:21.015Z,10.90
2023-10-18T15:43:52.382Z,10.90
2023-10-18T15:46:27.505Z,10.80
2023-10-18T15:48:58.482Z,10.80
2023-10-18T15:51:27.550Z,10.70
2023-10-18T15:53:59.769Z,10.50
2023-10-18T15:56:29.922Z,10.50
2023-10-18T15:58:59.759Z,10.40
2023-10-18T16:01:33.433Z,10.30
2023-10-18T16:04:07.647Z,10.20
2023-10-18T16:06:35.798Z,10.10
2023-10-18T16:09:10.811Z,10.10
2023-10-18T16:11:40.936Z,10.10
2023-10-18T16:14:11.728Z,10.00
2023-10-18T16:16:41.843Z,9.90
2023-10-18T16:19:11.729Z,9.80
2023-10-18T16:21:41.896Z,9.80
2023-10-18T16:24:13.954Z,9.80
2023-10-18T16:26:41.942Z,9.70
2023-10-18T16:29:09.847Z,9.60
2023-10-18T16:31:37.901Z,9.60
2023-10-18T16:34:06.485Z,9.60
2023-10-18T16:36:34.648Z,9.50
2023-10-18T16:39:05.249Z,9.50
2023-10-18T16:41:34.683Z,9.50
2023-10-18T16:44:02.886Z,9.50
2023-10-18T16:46:32.755Z,9.50
2023-10-18T16:49:01.879Z,9.40
2023-10-18T16:51:29.926Z,9.30
2023-10-18T16:53:57.887Z,9.30
2023-10-18T16:56:26.725Z,9.20
2023-10-18T16:58:58.037Z,9.20
2023-10-18T17:01:26.354Z,9.20
2023-10-18T17:03:54.299Z,9.30
2023-10-18T17:06:22.670Z,9.30
2023-10-18T17:08:51.084Z,9.30
2023-10-18T17:11:19.947Z,9.30
2023-10-18T17:13:49.412Z,9.20
2023-10-18T17:16:19.122Z,9.20
2023-10-18T17:18:47.435Z,9.20
2023-10-18T17:21:19.658Z,9.10
2023-10-18T17:23:48.010Z,9.10
2023-10-18T17:26:18.508Z,9.10
2023-10-18T17:28:47.559Z,9.10
2023-10-18T17:31:16.264Z,9.00
2023-10-18T17:33:45.557Z,9.00
2023-10-18T17:36:13.394Z,9.00
2023-10-18T17:38:41.342Z,8.90
2023-10-18T17:41:09.920Z,9.00
2023-10-18T17:43:37.841Z,9.00
2023-10-18T17:46:05.757Z,8.90
2023-10-18T17:48:33.762Z,8.90
2023-10-18T17:51:09.717Z,8.90
2023-10-18T17:53:37.938Z,8.90
2023-10-18T17:56:08.630Z,8.90
2023-10-18T17:58:38.729Z,8.80
2023-10-18T18:01:07.574Z,8.80
2023-10-18T18:03:37.236Z,8.80
2023-10-18T18:06:11.667Z,8.80
2023-10-18T18:08:40.846Z,8.80
2023-10-18T18:11:09.126Z,8.70
2023-10-18T18:13:38.885Z,8.70
2023-10-18T18:16:07.434Z,8.70
2023-10-18T18:18:35.357Z,8.70
2023-10-18T18:21:03.826Z,8.60
2023-10-18T18:23:33.100Z,8.60
2023-10-18T18:26:07.916Z,8.60
2023-10-18T18:28:37.601Z,8.60
2023-10-18T18:31:05.787Z,8.50
2023-10-18T18:33:33.762Z,8.50
2023-10-18T18:36:01.798Z,8.50
2023-10-18T18:38:29.699Z,8.50
2023-10-18T18:41:00.182Z,8.50
2023-10-18T18:43:28.793Z,8.50
2023-10-18T18:46:00.490Z,8.50
2023-10-18T18:48:28.570Z,8.50
2023-10-18T18:50:56.597Z,8.50
2023-10-18T18:53:24.544Z,8.50
2023-10-18T18:55:52.817Z,8.50
2023-10-18T18:58:22.026Z,8.50
2023-10-18T19:00:50.104Z,8.50
2023-10-18T19:03:19.788Z,8.50
2023-10-18T19:05:47.813Z,8.40
2023-10-18T19:08:15.852Z,8.40
2023-10-18T19:10:43.724Z,8.40
2023-10-18T19:13:12.800Z,8.40
2023-10-18T19:15:42.090Z,8.40
2023-10-18T19:18:10.089Z,8.40
2023-10-18T19:20:38.030Z,8.40
2023-10-18T19:23:06.123Z,8.30
2023-10-18T19:25:34.141Z,8.30
2023-10-18T19:28:02.088Z,8.30
2023-10-18T19:30:29.957Z,8.20
2023-10-18T19:33:00.828Z,8.20
2023-10-18T19:35:29.813Z,8.20
2023-10-18T19:37:57.743Z,8.10
2023-10-18T19:40:26.428Z,8.10
2023-10-18T19:42:54.316Z,8.00
2023-10-18T19:45:23.044Z,8.00
2023-10-18T19:47:51.026Z,8.00
2023-10-18T19:50:20.701Z,8.00
2023-10-18T19:52:48.563Z,8.00
2023-10-18T19:55:16.657Z,8.00
2023-10-18T19:57:44.665Z,8.00
2023-10-18T20:00:16.264Z,8.00
2023-10-18T20:02:45.388Z,8.00
2023-10-18T20:05:15.341Z,8.00
2023-10-18T20:07:44.732Z,8.00
2023-10-18T20:10:14.306Z,8.00
2023-10-18T20:12:42.345Z,8.00
2023-10-18T20:15:11.121Z,8.00
2023-10-18T20:17:39.261Z,8.00
2023-10-18T20:20:09.958Z,8.10
2023-10-18T20:22:40.643Z,8.00
2023-10-18T20:25:13.982Z,8.00
2023-10-18T20:27:42.736Z,8.00
2023-10-18T20:30:11.410Z,8.00
2023-10-18T20:32:39.446Z,8.00
2023-10-18T20:35:08.913Z,8.00
2023-10-18T20:37:37.498Z,8.00
2023-10-18T20:40:09.764Z,8.00
2023-10-18T20:42:40.105Z,8.00
2023-10-18T20:45:11.898Z,8.00
2023-10-18T20:47:43.943Z,8.00
2023-10-18T20:50:18.842Z,8.00
2023-10-18T20:52:47.747Z,8.00
2023-10-18T20:55:17.401Z,8.00
2023-10-18T20:57:46.723Z,8.10
2023-10-18T21:00:24.213Z,8.10
2023-10-18T21:02:52.271Z,8.10
2023-10-18T21:05:28.879Z,8.10
2023-10-18T21:07:57.217Z,8.10
2023-10-18T21:10:25.232Z,8.10
2023-10-18T21:12:54.617Z,8.10
2023-10-18T21:15:23.777Z,8.10
2023-10-18T21:17:51.959Z,8.10
2023-10-18T21:20:23.758Z,8.10
2023-10-18T21:22:55.009Z,8.00
2023-10-18T21:25:23.561Z,8.10
2023-10-18T21:27:51.887Z,8.10
2023-10-18T21:30:23.840Z,8.10
2023-10-18T21:32:53.333Z,8.10
2023-10-18T21:35:23.161Z,8.00
2023-10-18T21:37:52.939Z,8.00
2023-10-18T21:40:22.217Z,8.00
2023-10-18T21:42:50.841Z,8.00
2023-10-18T21:45:20.941Z,8.00
2023-10-18T21:47:49.387Z,7.90
2023-10-18T21:50:17.430Z,7.90
2023-10-18T21:52:46.189Z,7.90
2023-10-18T21:55:14.121Z,7.90
2023-10-18T21:57:42.094Z,7.90
2023-10-18T22:00:23.568Z,7.90
2023-10-18T22:02:53.636Z,7.90
2023-10-18T22:05:27.849Z,7.90
2023-10-18T22:07:56.875Z,7.90
2023-10-18T22:10:25.244Z,7.90
2023-10-18T22:12:56.596Z,7.90
2023-10-18T22:15:26.831Z,7.90
2023-10-18T22:17:56.398Z,7.90
2023-10-18T22:20:25.352Z,7.90
2023-10-18T22:22:53.432Z,7.90
2023-10-18T22:25:23.284Z,7.90
2023-10-18T22:27:56.588Z,7.80
2023-10-18T22:30:31.618Z,7.80
2023-10-18T22:33:01.035Z,7.90
2023-10-18T22:35:29.235Z,7.90
2023-10-18T22:38:05.332Z,7.90
2023-10-18T22:40:36.754Z,7.90
2023-10-18T22:43:11.968Z,7.90
2023-10-18T22:45:52.660Z,7.90
2023-10-18T22:48:25.203Z,7.90
2023-10-18T22:51:09.919Z,7.90
2023-10-18T22:53:51.783Z,7.90
2023-10-18T22:56:30.775Z,7.90
2023-10-18T22:58:59.499Z,8.00
2023-10-18T23:01:28.108Z,8.00
2023-10-18T23:03:57.672Z,8.00
2023-10-18T23:06:25.565Z,8.00
2023-10-18T23:09:06.299Z,8.00
2023-10-18T23:11:42.443Z,8.10
2023-10-18T23:14:24.312Z,8.10
2023-10-18T23:17:10.869Z,8.10
2023-10-18T23:19:45.793Z,8.10
2023-10-18T23:22:20.745Z,8.00
2023-10-18T23:24:49.918Z,8.10
2023-10-18T23:27:36.474Z,8.10
2023-10-18T23:30:16.195Z,8.10
2023-10-18T23:32:59.091Z,8.10
2023-10-18T23:35:32.168Z,8.10
2023-10-18T23:38:10.738Z,8.10
2023-10-18T23:40:53.818Z,8.10
2023-10-18T23:43:50.310Z,8.10
2023-10-18T23:46:58.308Z,8.10
2023-10-18T23:49:46.361Z,8.00
2023-10-18T23:52:32.693Z,8.00
2023-10-18T23:55:12.113Z,8.00
2023-10-18T23:57:40.122Z,8.00
